sensor_id;sensor_type;location;lat;lon;timestamp;P1;durP1;ratioP1;P2;durP2;ratioP2
84695;SDS011;74913;40.204;44.532;2024-02-21T00:02:11;18.27;;;8.73;;
84695;SDS011;74913;40.204;44.532;2024-02-21T00:04:37;15.38;;;8.63;;
84695;SDS011;74913;40.204;44.532;2024-02-21T00:07:03;22.20;;;9.23;;
84695;SDS011;74913;40.204;44.532;2024-02-21T00:09:29;19.38;;;8.40;;
84695;SDS011;74913;40.204;44.532;2024-02-21T00:11:55;15.77;;;6.90;;
84695;SDS011;74913;40.204;44.532;2024-02-21T00:14:21;16.85;;;8.45;;
84695;SDS011;74913;40.204;44.532;2024-02-21T00:16:46;12.50;;;6.38;;
84695;SDS011;74913;40.204;44.532;2024-02-21T00:19:12;12.80;;;7.03;;
84695;SDS011;74913;40.204;44.532;2024-02-21T00:21:39;13.57;;;5.63;;
84695;SDS011;74913;40.204;44.532;2024-02-21T00:24:05;8.38;;;4.70;;
84695;SDS011;74913;40.204;44.532;2024-02-21T00:26:31;8.85;;;4.97;;
84695;SDS011;74913;40.204;44.532;2024-02-21T00:28:56;9.23;;;4.63;;
84695;SDS011;74913;40.204;44.532;2024-02-21T00:31:22;8.80;;;4.70;;
84695;SDS011;74913;40.204;44.532;2024-02-21T00:33:48;6.32;;;4.20;;
84695;SDS011;74913;40.204;44.532;2024-02-21T00:36:13;11.77;;;4.65;;
84695;SDS011;74913;40.204;44.532;2024-02-21T00:38:40;10.05;;;4.88;;
84695;SDS011;74913;40.204;44.532;2024-02-21T00:41:06;14.38;;;5.38;;
84695;SDS011;74913;40.204;44.532;2024-02-21T00:43:31;12.45;;;6.38;;
84695;SDS011;74913;40.204;44.532;2024-02-21T00:45:57;11.70;;;5.38;;
84695;SDS011;74913;40.204;44.532;2024-02-21T00:48:23;14.63;;;7.03;;
84695;SDS011;74913;40.204;44.532;2024-02-21T00:50:48;13.77;;;5.75;;
84695;SDS011;74913;40.204;44.532;2024-02-21T00:53:14;13.05;;;5.72;;
84695;SDS011;74913;40.204;44.532;2024-02-21T00:55:39;12.45;;;6.10;;
84695;SDS011;74913;40.204;44.532;2024-02-21T00:58:05;11.77;;;5.78;;
84695;SDS011;74913;40.204;44.532;2024-02-21T01:00:31;12.80;;;5.40;;
84695;SDS011;74913;40.204;44.532;2024-02-21T01:02:57;12.55;;;5.75;;
84695;SDS011;74913;40.204;44.532;2024-02-21T01:05:22;10.55;;;4.95;;
84695;SDS011;74913;40.204;44.532;2024-02-21T01:07:48;10.32;;;5.45;;
84695;SDS011;74913;40.204;44.532;2024-02-21T01:10:13;15.55;;;6.40;;
84695;SDS011;74913;40.204;44.532;2024-02-21T01:12:39;12.57;;;5.82;;
84695;SDS011;74913;40.204;44.532;2024-02-21T01:15:05;7.25;;;4.13;;
84695;SDS011;74913;40.204;44.532;2024-02-21T01:17:31;13.15;;;5.65;;
84695;SDS011;74913;40.204;44.532;2024-02-21T01:19:56;7.38;;;5.10;;
84695;SDS011;74913;40.204;44.532;2024-02-21T01:22:22;9.32;;;4.63;;
84695;SDS011;74913;40.204;44.532;2024-02-21T01:24:47;8.73;;;5.03;;
84695;SDS011;74913;40.204;44.532;2024-02-21T01:27:13;10.90;;;4.97;;
84695;SDS011;74913;40.204;44.532;2024-02-21T01:29:39;12.90;;;5.03;;
84695;SDS011;74913;40.204;44.532;2024-02-21T01:32:04;8.68;;;3.92;;
84695;SDS011;74913;40.204;44.532;2024-02-21T01:34:30;7.80;;;4.35;;
84695;SDS011;74913;40.204;44.532;2024-02-21T01:36:56;10.15;;;4.72;;
84695;SDS011;74913;40.204;44.532;2024-02-21T01:39:21;5.60;;;3.20;;
84695;SDS011;74913;40.204;44.532;2024-02-21T01:41:47;8.98;;;4.43;;
84695;SDS011;74913;40.204;44.532;2024-02-21T01:44:13;7.65;;;4.40;;
84695;SDS011;74913;40.204;44.532;2024-02-21T01:46:38;8.85;;;4.50;;
84695;SDS011;74913;40.204;44.532;2024-02-21T01:49:05;7.80;;;4.22;;
84695;SDS011;74913;40.204;44.532;2024-02-21T01:51:31;8.80;;;4.03;;
84695;SDS011;74913;40.204;44.532;2024-02-21T01:53:57;7.70;;;4.10;;
84695;SDS011;74913;40.204;44.532;2024-02-21T01:56:41;7.05;;;4.10;;
84695;SDS011;74913;40.204;44.532;2024-02-21T01:59:08;7.30;;;3.55;;
84695;SDS011;74913;40.204;44.532;2024-02-21T02:01:34;9.40;;;4.30;;
84695;SDS011;74913;40.204;44.532;2024-02-21T02:03:59;7.53;;;3.75;;
84695;SDS011;74913;40.204;44.532;2024-02-21T02:06:25;7.60;;;4.03;;
84695;SDS011;74913;40.204;44.532;2024-02-21T02:55:56;13.30;;;6.25;;
84695;SDS011;74913;40.204;44.532;2024-02-21T02:58:22;17.30;;;6.10;;
84695;SDS011;74913;40.204;44.532;2024-02-21T03:00:48;12.95;;;6.35;;
84695;SDS011;74913;40.204;44.532;2024-02-21T03:03:14;11.30;;;6.25;;
84695;SDS011;74913;40.204;44.532;2024-02-21T03:05:41;9.55;;;4.80;;
84695;SDS011;74913;40.204;44.532;2024-02-21T03:08:07;12.65;;;6.22;;
84695;SDS011;74913;40.204;44.532;2024-02-21T03:12:59;11.93;;;6.22;;
84695;SDS011;74913;40.204;44.532;2024-02-21T03:15:25;14.82;;;6.75;;
84695;SDS011;74913;40.204;44.532;2024-02-21T03:17:50;14.52;;;6.90;;
84695;SDS011;74913;40.204;44.532;2024-02-21T03:20:16;11.93;;;5.25;;
84695;SDS011;74913;40.204;44.532;2024-02-21T03:22:42;12.63;;;5.97;;
84695;SDS011;74913;40.204;44.532;2024-02-21T03:25:08;12.88;;;6.20;;
84695;SDS011;74913;40.204;44.532;2024-02-21T03:27:35;19.00;;;7.10;;
84695;SDS011;74913;40.204;44.532;2024-02-21T03:30:00;13.68;;;5.95;;
84695;SDS011;74913;40.204;44.532;2024-02-21T03:32:26;14.00;;;6.28;;
84695;SDS011;74913;40.204;44.532;2024-02-21T03:34:53;11.00;;;5.78;;
84695;SDS011;74913;40.204;44.532;2024-02-21T03:37:19;12.05;;;6.75;;
84695;SDS011;74913;40.204;44.532;2024-02-21T03:39:45;12.27;;;6.78;;
84695;SDS011;74913;40.204;44.532;2024-02-21T03:42:11;16.25;;;6.80;;
84695;SDS011;74913;40.204;44.532;2024-02-21T03:44:37;11.75;;;5.72;;
84695;SDS011;74913;40.204;44.532;2024-02-21T03:47:02;12.35;;;6.15;;
84695;SDS011;74913;40.204;44.532;2024-02-21T03:49:28;13.48;;;6.22;;
84695;SDS011;74913;40.204;44.532;2024-02-21T03:51:53;12.02;;;6.15;;
84695;SDS011;74913;40.204;44.532;2024-02-21T03:54:19;13.45;;;7.55;;
84695;SDS011;74913;40.204;44.532;2024-02-21T03:56:45;19.42;;;8.43;;
84695;SDS011;74913;40.204;44.532;2024-02-21T03:59:13;21.13;;;7.55;;
84695;SDS011;74913;40.204;44.532;2024-02-21T04:01:38;16.65;;;7.82;;
84695;SDS011;74913;40.204;44.532;2024-02-21T04:04:04;12.90;;;7.30;;
84695;SDS011;74913;40.204;44.532;2024-02-21T04:06:30;20.13;;;9.07;;
84695;SDS011;74913;40.204;44.532;2024-02-21T04:08:56;15.93;;;8.93;;
84695;SDS011;74913;40.204;44.532;2024-02-21T04:13:47;15.95;;;7.00;;
84695;SDS011;74913;40.204;44.532;2024-02-21T04:16:15;18.55;;;9.00;;
84695;SDS011;74913;40.204;44.532;2024-02-21T04:18:41;18.45;;;6.95;;
84695;SDS011;74913;40.204;44.532;2024-02-21T04:21:08;16.88;;;7.88;;
84695;SDS011;74913;40.204;44.532;2024-02-21T04:23:34;19.13;;;10.27;;
84695;SDS011;74913;40.204;44.532;2024-02-21T04:25:59;16.02;;;7.95;;
84695;SDS011;74913;40.204;44.532;2024-02-21T04:28:25;14.07;;;7.47;;
84695;SDS011;74913;40.204;44.532;2024-02-21T04:30:51;16.15;;;8.52;;
84695;SDS011;74913;40.204;44.532;2024-02-21T04:33:16;18.30;;;8.70;;
84695;SDS011;74913;40.204;44.532;2024-02-21T04:35:42;19.80;;;8.45;;
84695;SDS011;74913;40.204;44.532;2024-02-21T04:38:07;17.40;;;8.25;;
84695;SDS011;74913;40.204;44.532;2024-02-21T04:40:33;17.58;;;8.48;;
84695;SDS011;74913;40.204;44.532;2024-02-21T04:42:59;19.73;;;8.18;;
84695;SDS011;74913;40.204;44.532;2024-02-21T04:45:24;16.52;;;8.25;;
84695;SDS011;74913;40.204;44.532;2024-02-21T04:47:50;16.15;;;7.78;;
84695;SDS011;74913;40.204;44.532;2024-02-21T04:50:16;19.20;;;8.85;;
84695;SDS011;74913;40.204;44.532;2024-02-21T04:52:41;20.70;;;8.95;;
84695;SDS011;74913;40.204;44.532;2024-02-21T04:55:07;20.67;;;8.65;;
84695;SDS011;74913;40.204;44.532;2024-02-21T04:57:33;14.73;;;8.02;;
84695;SDS011;74913;40.204;44.532;2024-02-21T04:59:59;20.27;;;8.77;;
84695;SDS011;74913;40.204;44.532;2024-02-21T05:02:24;22.05;;;10.05;;
84695;SDS011;74913;40.204;44.532;2024-02-21T05:04:52;18.70;;;8.35;;
84695;SDS011;74913;40.204;44.532;2024-02-21T05:09:44;24.73;;;9.30;;
84695;SDS011;74913;40.204;44.532;2024-02-21T05:12:10;17.45;;;8.68;;
84695;SDS011;74913;40.204;44.532;2024-02-21T05:14:36;22.40;;;9.68;;
84695;SDS011;74913;40.204;44.532;2024-02-21T05:17:02;20.80;;;9.73;;
84695;SDS011;74913;40.204;44.532;2024-02-21T05:19:28;21.65;;;9.63;;
84695;SDS011;74913;40.204;44.532;2024-02-21T05:21:54;21.17;;;10.10;;
84695;SDS011;74913;40.204;44.532;2024-02-21T05:24:20;23.60;;;10.80;;
84695;SDS011;74913;40.204;44.532;2024-02-21T05:26:45;29.75;;;10.65;;
84695;SDS011;74913;40.204;44.532;2024-02-21T05:29:11;23.05;;;9.63;;
84695;SDS011;74913;40.204;44.532;2024-02-21T05:34:18;24.75;;;11.55;;
84695;SDS011;74913;40.204;44.532;2024-02-21T05:39:10;21.55;;;10.25;;
84695;SDS011;74913;40.204;44.532;2024-02-21T05:41:35;22.38;;;9.75;;
84695;SDS011;74913;40.204;44.532;2024-02-21T05:44:01;17.80;;;8.77;;
84695;SDS011;74913;40.204;44.532;2024-02-21T05:46:27;16.63;;;8.13;;
84695;SDS011;74913;40.204;44.532;2024-02-21T05:48:53;14.70;;;7.93;;
84695;SDS011;74913;40.204;44.532;2024-02-21T05:51:18;14.20;;;7.05;;
84695;SDS011;74913;40.204;44.532;2024-02-21T05:53:44;19.45;;;8.63;;
84695;SDS011;74913;40.204;44.532;2024-02-21T05:56:13;15.10;;;8.15;;
84695;SDS011;74913;40.204;44.532;2024-02-21T05:58:39;16.98;;;8.43;;
84695;SDS011;74913;40.204;44.532;2024-02-21T06:01:05;26.00;;;10.52;;
84695;SDS011;74913;40.204;44.532;2024-02-21T06:03:34;21.73;;;9.90;;
84695;SDS011;74913;40.204;44.532;2024-02-21T06:06:01;17.02;;;8.25;;
84695;SDS011;74913;40.204;44.532;2024-02-21T06:08:27;16.05;;;7.30;;
84695;SDS011;74913;40.204;44.532;2024-02-21T06:10:53;15.23;;;8.20;;
84695;SDS011;74913;40.204;44.532;2024-02-21T06:13:28;23.80;;;9.40;;
84695;SDS011;74913;40.204;44.532;2024-02-21T06:15:54;25.55;;;9.65;;
84695;SDS011;74913;40.204;44.532;2024-02-21T06:18:20;20.10;;;9.85;;
84695;SDS011;74913;40.204;44.532;2024-02-21T06:20:46;18.15;;;9.88;;
84695;SDS011;74913;40.204;44.532;2024-02-21T06:23:12;24.27;;;10.77;;
84695;SDS011;74913;40.204;44.532;2024-02-21T06:25:38;27.20;;;10.70;;
84695;SDS011;74913;40.204;44.532;2024-02-21T06:28:05;24.15;;;10.85;;
84695;SDS011;74913;40.204;44.532;2024-02-21T06:30:30;19.65;;;10.13;;
84695;SDS011;74913;40.204;44.532;2024-02-21T06:32:56;19.48;;;9.68;;
84695;SDS011;74913;40.204;44.532;2024-02-21T06:35:22;17.38;;;9.43;;
84695;SDS011;74913;40.204;44.532;2024-02-21T06:37:51;20.70;;;10.82;;
84695;SDS011;74913;40.204;44.532;2024-02-21T06:40:21;20.13;;;9.05;;
84695;SDS011;74913;40.204;44.532;2024-02-21T06:42:47;15.90;;;8.75;;
84695;SDS011;74913;40.204;44.532;2024-02-21T06:45:13;19.35;;;9.45;;
84695;SDS011;74913;40.204;44.532;2024-02-21T06:47:39;23.42;;;9.85;;
84695;SDS011;74913;40.204;44.532;2024-02-21T06:50:04;22.13;;;10.25;;
84695;SDS011;74913;40.204;44.532;2024-02-21T06:52:30;22.83;;;11.48;;
84695;SDS011;74913;40.204;44.532;2024-02-21T06:54:56;27.08;;;12.02;;
84695;SDS011;74913;40.204;44.532;2024-02-21T06:57:22;23.85;;;11.70;;
84695;SDS011;74913;40.204;44.532;2024-02-21T06:59:48;23.38;;;10.95;;
84695;SDS011;74913;40.204;44.532;2024-02-21T07:02:13;18.15;;;9.27;;
84695;SDS011;74913;40.204;44.532;2024-02-21T07:04:39;20.45;;;9.30;;
84695;SDS011;74913;40.204;44.532;2024-02-21T07:07:05;20.88;;;10.25;;
84695;SDS011;74913;40.204;44.532;2024-02-21T07:09:30;15.55;;;7.90;;
84695;SDS011;74913;40.204;44.532;2024-02-21T07:11:57;20.70;;;11.73;;
84695;SDS011;74913;40.204;44.532;2024-02-21T07:14:23;30.08;;;12.50;;
84695;SDS011;74913;40.204;44.532;2024-02-21T07:16:48;22.05;;;10.00;;
84695;SDS011;74913;40.204;44.532;2024-02-21T07:19:14;17.67;;;8.88;;
84695;SDS011;74913;40.204;44.532;2024-02-21T07:21:40;17.77;;;9.25;;
84695;SDS011;74913;40.204;44.532;2024-02-21T07:24:07;24.92;;;11.07;;
84695;SDS011;74913;40.204;44.532;2024-02-21T07:28:59;27.83;;;13.55;;
84695;SDS011;74913;40.204;44.532;2024-02-21T07:31:24;35.15;;;15.00;;
84695;SDS011;74913;40.204;44.532;2024-02-21T07:33:50;27.65;;;14.55;;
84695;SDS011;74913;40.204;44.532;2024-02-21T07:36:15;32.50;;;14.90;;
84695;SDS011;74913;40.204;44.532;2024-02-21T07:38:53;31.90;;;16.48;;
84695;SDS011;74913;40.204;44.532;2024-02-21T07:41:18;26.23;;;14.00;;
84695;SDS011;74913;40.204;44.532;2024-02-21T07:43:44;28.23;;;16.38;;
84695;SDS011;74913;40.204;44.532;2024-02-21T07:46:10;26.23;;;14.93;;
84695;SDS011;74913;40.204;44.532;2024-02-21T07:48:35;26.50;;;15.52;;
84695;SDS011;74913;40.204;44.532;2024-02-21T07:51:01;37.20;;;17.15;;
84695;SDS011;74913;40.204;44.532;2024-02-21T07:55:52;32.92;;;16.90;;
84695;SDS011;74913;40.204;44.532;2024-02-21T08:00:43;23.58;;;12.98;;
84695;SDS011;74913;40.204;44.532;2024-02-21T08:03:09;29.10;;;14.65;;
84695;SDS011;74913;40.204;44.532;2024-02-21T08:08:00;27.48;;;13.27;;
84695;SDS011;74913;40.204;44.532;2024-02-21T08:10:25;34.30;;;14.27;;
84695;SDS011;74913;40.204;44.532;2024-02-21T08:15:16;25.73;;;13.38;;
84695;SDS011;74913;40.204;44.532;2024-02-21T08:17:42;22.02;;;12.60;;
84695;SDS011;74913;40.204;44.532;2024-02-21T08:22:34;26.08;;;11.50;;
84695;SDS011;74913;40.204;44.532;2024-02-21T08:25:02;22.42;;;11.48;;
84695;SDS011;74913;40.204;44.532;2024-02-21T08:27:30;22.63;;;11.15;;
84695;SDS011;74913;40.204;44.532;2024-02-21T08:29:56;23.23;;;11.45;;
84695;SDS011;74913;40.204;44.532;2024-02-21T08:32:22;18.85;;;10.93;;
84695;SDS011;74913;40.204;44.532;2024-02-21T08:37:13;23.30;;;11.35;;
84695;SDS011;74913;40.204;44.532;2024-02-21T08:42:04;19.17;;;8.75;;
84695;SDS011;74913;40.204;44.532;2024-02-21T08:44:30;16.25;;;8.25;;
84695;SDS011;74913;40.204;44.532;2024-02-21T08:46:56;15.65;;;7.63;;
84695;SDS011;74913;40.204;44.532;2024-02-21T08:51:47;16.42;;;7.70;;
84695;SDS011;74913;40.204;44.532;2024-02-21T08:54:13;12.15;;;6.75;;
84695;SDS011;74913;40.204;44.532;2024-02-21T08:59:04;10.93;;;6.43;;
84695;SDS011;74913;40.204;44.532;2024-02-21T09:03:55;15.05;;;7.63;;
84695;SDS011;74913;40.204;44.532;2024-02-21T09:06:21;15.82;;;7.82;;
84695;SDS011;74913;40.204;44.532;2024-02-21T09:11:13;15.63;;;6.18;;
84695;SDS011;74913;40.204;44.532;2024-02-21T09:16:04;14.30;;;7.18;;
84695;SDS011;74913;40.204;44.532;2024-02-21T09:18:31;16.77;;;8.73;;
84695;SDS011;74913;40.204;44.532;2024-02-21T09:20:57;15.27;;;8.18;;
84695;SDS011;74913;40.204;44.532;2024-02-21T09:23:25;16.40;;;7.72;;
84695;SDS011;74913;40.204;44.532;2024-02-21T09:25:51;12.85;;;7.03;;
84695;SDS011;74913;40.204;44.532;2024-02-21T09:28:16;15.68;;;7.80;;
84695;SDS011;74913;40.204;44.532;2024-02-21T09:33:08;12.15;;;6.90;;
84695;SDS011;74913;40.204;44.532;2024-02-21T09:37:59;22.65;;;8.07;;
84695;SDS011;74913;40.204;44.532;2024-02-21T09:42:54;17.65;;;7.80;;
84695;SDS011;74913;40.204;44.532;2024-02-21T09:45:32;19.58;;;8.48;;
84695;SDS011;74913;40.204;44.532;2024-02-21T09:48:04;16.00;;;7.60;;
84695;SDS011;74913;40.204;44.532;2024-02-21T09:50:41;15.48;;;7.75;;
84695;SDS011;74913;40.204;44.532;2024-02-21T09:53:09;15.85;;;8.48;;
84695;SDS011;74913;40.204;44.532;2024-02-21T09:55:37;16.67;;;8.00;;
84695;SDS011;74913;40.204;44.532;2024-02-21T09:58:06;14.82;;;6.95;;
84695;SDS011;74913;40.204;44.532;2024-02-21T10:00:33;14.00;;;7.28;;
84695;SDS011;74913;40.204;44.532;2024-02-21T10:03:00;12.20;;;6.70;;
84695;SDS011;74913;40.204;44.532;2024-02-21T10:05:25;13.80;;;6.65;;
84695;SDS011;74913;40.204;44.532;2024-02-21T10:07:52;18.52;;;7.65;;
84695;SDS011;74913;40.204;44.532;2024-02-21T10:10:19;12.40;;;6.72;;
84695;SDS011;74913;40.204;44.532;2024-02-21T10:12:50;11.63;;;6.50;;
84695;SDS011;74913;40.204;44.532;2024-02-21T10:15:25;14.20;;;6.68;;
84695;SDS011;74913;40.204;44.532;2024-02-21T10:18:00;17.38;;;8.38;;
84695;SDS011;74913;40.204;44.532;2024-02-21T10:20:31;18.55;;;8.55;;
84695;SDS011;74913;40.204;44.532;2024-02-21T10:23:00;18.08;;;9.40;;
84695;SDS011;74913;40.204;44.532;2024-02-21T10:25:33;14.95;;;8.98;;
84695;SDS011;74913;40.204;44.532;2024-02-21T10:28:01;23.20;;;11.00;;
84695;SDS011;74913;40.204;44.532;2024-02-21T10:30:28;20.00;;;9.77;;
84695;SDS011;74913;40.204;44.532;2024-02-21T10:32:53;20.77;;;9.40;;
84695;SDS011;74913;40.204;44.532;2024-02-21T10:37:55;16.42;;;6.78;;
84695;SDS011;74913;40.204;44.532;2024-02-21T10:40:22;19.58;;;10.50;;
84695;SDS011;74913;40.204;44.532;2024-02-21T10:42:50;16.65;;;8.02;;
84695;SDS011;74913;40.204;44.532;2024-02-21T10:45:21;20.33;;;8.85;;
84695;SDS011;74913;40.204;44.532;2024-02-21T10:47:53;19.92;;;7.90;;
84695;SDS011;74913;40.204;44.532;2024-02-21T10:50:26;19.08;;;8.88;;
84695;SDS011;74913;40.204;44.532;2024-02-21T10:53:39;19.95;;;9.52;;
84695;SDS011;74913;40.204;44.532;2024-02-21T10:56:06;22.60;;;9.68;;
84695;SDS011;74913;40.204;44.532;2024-02-21T10:58:49;15.43;;;9.40;;
84695;SDS011;74913;40.204;44.532;2024-02-21T11:01:16;14.68;;;7.82;;
84695;SDS011;74913;40.204;44.532;2024-02-21T11:03:43;20.25;;;10.82;;
84695;SDS011;74913;40.204;44.532;2024-02-21T11:06:12;18.33;;;9.15;;
84695;SDS011;74913;40.204;44.532;2024-02-21T11:08:39;14.85;;;8.75;;
84695;SDS011;74913;40.204;44.532;2024-02-21T11:11:04;17.40;;;8.27;;
84695;SDS011;74913;40.204;44.532;2024-02-21T11:16:11;18.75;;;9.13;;
84695;SDS011;74913;40.204;44.532;2024-02-21T11:18:37;27.55;;;11.63;;
84695;SDS011;74913;40.204;44.532;2024-02-21T11:21:03;13.73;;;7.55;;
84695;SDS011;74913;40.204;44.532;2024-02-21T11:23:32;16.48;;;7.50;;
84695;SDS011;74913;40.204;44.532;2024-02-21T11:26:07;13.80;;;6.78;;
84695;SDS011;74913;40.204;44.532;2024-02-21T11:28:34;16.42;;;8.45;;
84695;SDS011;74913;40.204;44.532;2024-02-21T11:31:11;15.00;;;7.95;;
84695;SDS011;74913;40.204;44.532;2024-02-21T11:33:41;19.85;;;9.00;;
84695;SDS011;74913;40.204;44.532;2024-02-21T11:36:10;14.65;;;7.55;;
84695;SDS011;74913;40.204;44.532;2024-02-21T11:38:36;14.43;;;7.60;;
84695;SDS011;74913;40.204;44.532;2024-02-21T11:41:01;16.00;;;7.70;;
84695;SDS011;74913;40.204;44.532;2024-02-21T11:43:27;12.18;;;6.65;;
84695;SDS011;74913;40.204;44.532;2024-02-21T11:48:29;25.83;;;6.93;;
84695;SDS011;74913;40.204;44.532;2024-02-21T11:50:56;11.82;;;6.47;;
84695;SDS011;74913;40.204;44.532;2024-02-21T11:53:22;13.68;;;6.63;;
84695;SDS011;74913;40.204;44.532;2024-02-21T12:03:06;12.80;;;7.15;;
84695;SDS011;74913;40.204;44.532;2024-02-21T12:05:32;10.48;;;5.40;;
84695;SDS011;74913;40.204;44.532;2024-02-21T12:07:58;12.77;;;5.60;;
84695;SDS011;74913;40.204;44.532;2024-02-21T12:10:25;11.40;;;5.88;;
84695;SDS011;74913;40.204;44.532;2024-02-21T12:12:52;12.85;;;5.40;;
84695;SDS011;74913;40.204;44.532;2024-02-21T12:15:20;8.48;;;4.22;;
84695;SDS011;74913;40.204;44.532;2024-02-21T12:17:46;9.88;;;4.82;;
84695;SDS011;74913;40.204;44.532;2024-02-21T12:20:12;9.00;;;5.18;;
84695;SDS011;74913;40.204;44.532;2024-02-21T12:22:37;11.38;;;5.40;;
84695;SDS011;74913;40.204;44.532;2024-02-21T12:25:04;14.50;;;8.00;;
84695;SDS011;74913;40.204;44.532;2024-02-21T12:27:41;17.52;;;8.32;;
84695;SDS011;74913;40.204;44.532;2024-02-21T12:30:06;16.13;;;7.68;;
84695;SDS011;74913;40.204;44.532;2024-02-21T12:32:35;8.68;;;5.15;;
84695;SDS011;74913;40.204;44.532;2024-02-21T12:35:01;9.15;;;4.10;;
84695;SDS011;74913;40.204;44.532;2024-02-21T12:42:18;10.95;;;4.95;;
84695;SDS011;74913;40.204;44.532;2024-02-21T12:47:10;10.35;;;5.32;;
84695;SDS011;74913;40.204;44.532;2024-02-21T12:52:01;8.77;;;4.80;;
84695;SDS011;74913;40.204;44.532;2024-02-21T12:56:52;7.53;;;4.82;;
84695;SDS011;74913;40.204;44.532;2024-02-21T12:59:17;8.70;;;5.03;;
84695;SDS011;74913;40.204;44.532;2024-02-21T13:04:08;11.35;;;5.60;;
84695;SDS011;74913;40.204;44.532;2024-02-21T13:09:00;11.25;;;5.60;;
84695;SDS011;74913;40.204;44.532;2024-02-21T13:11:28;11.32;;;6.47;;
84695;SDS011;74913;40.204;44.532;2024-02-21T13:13:56;9.93;;;5.57;;
84695;SDS011;74913;40.204;44.532;2024-02-21T13:16:22;13.45;;;6.45;;
84695;SDS011;74913;40.204;44.532;2024-02-21T13:21:13;13.77;;;6.70;;
84695;SDS011;74913;40.204;44.532;2024-02-21T13:26:05;9.60;;;6.00;;
84695;SDS011;74913;40.204;44.532;2024-02-21T13:28:31;17.77;;;6.70;;
84695;SDS011;74913;40.204;44.532;2024-02-21T13:33:22;15.82;;;6.57;;
84695;SDS011;74913;40.204;44.532;2024-02-21T13:38:13;17.15;;;8.50;;
84695;SDS011;74913;40.204;44.532;2024-02-21T13:40:39;18.92;;;10.48;;
84695;SDS011;74913;40.204;44.532;2024-02-21T13:43:07;17.73;;;9.60;;
84695;SDS011;74913;40.204;44.532;2024-02-21T13:45:33;28.45;;;13.07;;
84695;SDS011;74913;40.204;44.532;2024-02-21T13:50:27;16.92;;;8.75;;
84695;SDS011;74913;40.204;44.532;2024-02-21T13:52:55;11.13;;;5.88;;
84695;SDS011;74913;40.204;44.532;2024-02-21T13:55:21;14.57;;;7.00;;
84695;SDS011;74913;40.204;44.532;2024-02-21T13:57:51;12.90;;;7.30;;
84695;SDS011;74913;40.204;44.532;2024-02-21T14:00:17;13.60;;;6.63;;
84695;SDS011;74913;40.204;44.532;2024-02-21T14:02:43;13.82;;;6.80;;
84695;SDS011;74913;40.204;44.532;2024-02-21T14:05:09;16.27;;;7.10;;
84695;SDS011;74913;40.204;44.532;2024-02-21T14:07:35;10.20;;;5.88;;
84695;SDS011;74913;40.204;44.532;2024-02-21T14:10:01;14.77;;;8.15;;
84695;SDS011;74913;40.204;44.532;2024-02-21T14:12:28;15.98;;;7.68;;
84695;SDS011;74913;40.204;44.532;2024-02-21T14:14:54;15.63;;;7.60;;
84695;SDS011;74913;40.204;44.532;2024-02-21T14:17:23;20.60;;;8.98;;
84695;SDS011;74913;40.204;44.532;2024-02-21T14:19:49;16.00;;;7.75;;
84695;SDS011;74913;40.204;44.532;2024-02-21T14:22:16;14.35;;;7.55;;
84695;SDS011;74913;40.204;44.532;2024-02-21T14:24:42;12.43;;;7.35;;
84695;SDS011;74913;40.204;44.532;2024-02-21T14:27:08;15.45;;;7.93;;
84695;SDS011;74913;40.204;44.532;2024-02-21T14:29:34;15.20;;;9.73;;
84695;SDS011;74913;40.204;44.532;2024-02-21T14:34:25;18.20;;;8.60;;
84695;SDS011;74913;40.204;44.532;2024-02-21T14:39:17;26.98;;;9.65;;
84695;SDS011;74913;40.204;44.532;2024-02-21T14:41:42;24.35;;;8.82;;
84695;SDS011;74913;40.204;44.532;2024-02-21T14:44:08;19.25;;;8.57;;
84695;SDS011;74913;40.204;44.532;2024-02-21T14:46:35;22.17;;;8.68;;
84695;SDS011;74913;40.204;44.532;2024-02-21T14:49:03;25.23;;;9.43;;
84695;SDS011;74913;40.204;44.532;2024-02-21T14:51:28;15.23;;;7.18;;
84695;SDS011;74913;40.204;44.532;2024-02-21T14:53:55;19.42;;;7.20;;
84695;SDS011;74913;40.204;44.532;2024-02-21T14:56:21;14.00;;;7.38;;
84695;SDS011;74913;40.204;44.532;2024-02-21T14:58:48;14.63;;;6.90;;
84695;SDS011;74913;40.204;44.532;2024-02-21T15:01:14;21.45;;;9.13;;
84695;SDS011;74913;40.204;44.532;2024-02-21T15:06:05;17.25;;;7.13;;
84695;SDS011;74913;40.204;44.532;2024-02-21T15:08:31;22.88;;;6.88;;
84695;SDS011;74913;40.204;44.532;2024-02-21T15:10:56;20.80;;;8.88;;
84695;SDS011;74913;40.204;44.532;2024-02-21T15:13:23;14.93;;;7.45;;
84695;SDS011;74913;40.204;44.532;2024-02-21T15:15:48;14.63;;;7.22;;
84695;SDS011;74913;40.204;44.532;2024-02-21T15:18:16;28.35;;;10.90;;
84695;SDS011;74913;40.204;44.532;2024-02-21T15:20:42;25.40;;;10.25;;
84695;SDS011;74913;40.204;44.532;2024-02-21T15:23:08;21.02;;;9.55;;
84695;SDS011;74913;40.204;44.532;2024-02-21T15:25:33;23.00;;;8.80;;
84695;SDS011;74913;40.204;44.532;2024-02-21T15:27:59;23.90;;;9.95;;
84695;SDS011;74913;40.204;44.532;2024-02-21T15:30:25;17.52;;;8.55;;
84695;SDS011;74913;40.204;44.532;2024-02-21T15:32:52;19.05;;;9.02;;
84695;SDS011;74913;40.204;44.532;2024-02-21T15:35:20;23.15;;;11.45;;
84695;SDS011;74913;40.204;44.532;2024-02-21T15:37:46;20.20;;;9.77;;
84695;SDS011;74913;40.204;44.532;2024-02-21T15:40:13;29.05;;;14.93;;
84695;SDS011;74913;40.204;44.532;2024-02-21T15:42:39;21.15;;;10.95;;
84695;SDS011;74913;40.204;44.532;2024-02-21T15:45:05;25.05;;;13.00;;
84695;SDS011;74913;40.204;44.532;2024-02-21T15:47:32;27.80;;;12.40;;
84695;SDS011;74913;40.204;44.532;2024-02-21T15:49:57;19.63;;;10.50;;
84695;SDS011;74913;40.204;44.532;2024-02-21T15:52:25;17.05;;;9.43;;
84695;SDS011;74913;40.204;44.532;2024-02-21T15:54:51;19.85;;;11.43;;
84695;SDS011;74913;40.204;44.532;2024-02-21T15:57:17;18.92;;;10.93;;
84695;SDS011;74913;40.204;44.532;2024-02-21T15:59:43;22.70;;;10.10;;
84695;SDS011;74913;40.204;44.532;2024-02-21T16:02:10;21.67;;;11.18;;
84695;SDS011;74913;40.204;44.532;2024-02-21T16:04:35;20.58;;;9.50;;
84695;SDS011;74913;40.204;44.532;2024-02-21T16:07:01;27.65;;;13.05;;
84695;SDS011;74913;40.204;44.532;2024-02-21T16:09:29;20.88;;;11.32;;
84695;SDS011;74913;40.204;44.532;2024-02-21T16:11:55;20.42;;;9.27;;
84695;SDS011;74913;40.204;44.532;2024-02-21T16:14:21;25.27;;;12.60;;
84695;SDS011;74913;40.204;44.532;2024-02-21T16:16:48;22.27;;;11.40;;
84695;SDS011;74913;40.204;44.532;2024-02-21T16:21:40;23.25;;;11.93;;
84695;SDS011;74913;40.204;44.532;2024-02-21T16:24:06;13.68;;;6.65;;
84695;SDS011;74913;40.204;44.532;2024-02-21T16:26:37;24.63;;;12.10;;
84695;SDS011;74913;40.204;44.532;2024-02-21T16:29:03;22.05;;;11.10;;
84695;SDS011;74913;40.204;44.532;2024-02-21T16:31:30;18.42;;;11.23;;
84695;SDS011;74913;40.204;44.532;2024-02-21T16:33:55;18.73;;;9.23;;
84695;SDS011;74913;40.204;44.532;2024-02-21T16:36:21;25.75;;;13.18;;
84695;SDS011;74913;40.204;44.532;2024-02-21T16:38:49;25.23;;;12.70;;
84695;SDS011;74913;40.204;44.532;2024-02-21T16:41:16;16.70;;;9.27;;
84695;SDS011;74913;40.204;44.532;2024-02-21T16:43:47;18.92;;;11.10;;
84695;SDS011;74913;40.204;44.532;2024-02-21T16:46:14;20.63;;;10.27;;
84695;SDS011;74913;40.204;44.532;2024-02-21T16:48:40;13.00;;;7.47;;
84695;SDS011;74913;40.204;44.532;2024-02-21T16:51:06;13.43;;;8.23;;